sensor_id;sensor_type;location;lat;lon;timestamp;pressure;altitude;pressure_sealevel;temperature;humidity
66021;BME280;52789;59.980;30.346;2023-12-14T00:01:14;101196.22;;;-2.68;100.00
66021;BME280;52789;59.980;30.346;2023-12-14T00:03:40;101207.28;;;-2.63;100.00
66021;BME280;52789;59.980;30.346;2023-12-14T00:06:13;101155.94;;;-3.00;100.00
66021;BME280;52789;59.980;30.346;2023-12-14T00:08:39;101200.59;;;-2.68;100.00
66021;BME280;52789;59.980;30.346;2023-12-14T00:11:11;101198.13;;;-2.71;100.00
66021;BME280;52789;59.980;30.346;2023-12-14T00:13:37;101199.31;;;-2.78;100.00
66021;BME280;52789;59.980;30.346;2023-12-14T00:16:04;101208.81;;;-2.77;100.00
66021;BME280;52789;59.980;30.346;2023-12-14T00:18:29;101219.75;;;-2.69;100.00
66021;BME280;52789;59.980;30.346;2023-12-14T00:20:55;101220.47;;;-2.66;100.00
66021;BME280;52789;59.980;30.346;2023-12-14T00:23:22;101206.06;;;-2.74;100.00
66021;BME280;52789;59.980;30.346;2023-12-14T00:25:47;101214.47;;;-2.68;100.00
66021;BME280;52789;59.980;30.346;2023-12-14T00:28:13;101233.81;;;-2.53;100.00
66021;BME280;52789;59.980;30.346;2023-12-14T00:30:39;101234.31;;;-2.45;100.00
66021;BME280;52789;59.980;30.346;2023-12-14T00:33:05;101230.66;;;-2.41;100.00
66021;BME280;52789;59.980;30.346;2023-12-14T00:35:30;101194.59;;;-2.70;100.00
66021;BME280;52789;59.980;30.346;2023-12-14T00:37:56;101218.69;;;-2.65;100.00
66021;BME280;52789;59.980;30.346;2023-12-14T00:40:21;101215.72;;;-2.76;100.00
66021;BME280;52789;59.980;30.346;2023-12-14T00:42:47;101243.09;;;-2.66;100.00
66021;BME280;52789;59.980;30.346;2023-12-14T00:45:13;101225.09;;;-2.72;100.00
66021;BME280;52789;59.980;30.346;2023-12-14T00:47:38;101247.91;;;-2.57;100.00
66021;BME280;52789;59.980;30.346;2023-12-14T00:50:04;101240.22;;;-2.60;100.00
66021;BME280;52789;59.980;30.346;2023-12-14T00:52:30;101227.56;;;-2.69;100.00
66021;BME280;52789;59.980;30.346;2023-12-14T00:54:56;101243.97;;;-2.47;100.00
66021;BME280;52789;59.980;30.346;2023-12-14T00:57:22;101217.53;;;-2.58;100.00
66021;BME280;52789;59.980;30.346;2023-12-14T00:59:47;101240.31;;;-2.43;100.00
66021;BME280;52789;59.980;30.346;2023-12-14T01:02:13;101167.97;;;-2.97;100.00
66021;BME280;52789;59.980;30.346;2023-12-14T01:04:39;101218.56;;;-2.62;100.00
66021;BME280;52789;59.980;30.346;2023-12-14T01:07:04;101230.50;;;-2.57;100.00
66021;BME280;52789;59.980;30.346;2023-12-14T01:09:30;101232.28;;;-2.57;100.00
66021;BME280;52789;59.980;30.346;2023-12-14T01:11:56;101234.34;;;-2.65;100.00
66021;BME280;52789;59.980;30.346;2023-12-14T01:14:21;101230.25;;;-2.71;100.00
66021;BME280;52789;59.980;30.346;2023-12-14T01:16:47;101252.00;;;-2.52;100.00
66021;BME280;52789;59.980;30.346;2023-12-14T01:19:12;101176.25;;;-2.88;100.00
66021;BME280;52789;59.980;30.346;2023-12-14T01:21:38;101249.19;;;-2.47;100.00
66021;BME280;52789;59.980;30.346;2023-12-14T01:24:04;101226.38;;;-2.62;100.00
66021;BME280;52789;59.980;30.346;2023-12-14T01:26:29;101225.03;;;-2.71;100.00
66021;BME280;52789;59.980;30.346;2023-12-14T01:28:55;101202.44;;;-2.91;100.00
66021;BME280;52789;59.980;30.346;2023-12-14T01:31:21;101263.28;;;-2.71;100.00
66021;BME280;52789;59.980;30.346;2023-12-14T01:33:50;101236.44;;;-2.73;100.00
66021;BME280;52789;59.980;30.346;2023-12-14T01:36:23;101242.03;;;-2.62;100.00
66021;BME280;52789;59.980;30.346;2023-12-14T01:38:49;101243.16;;;-2.68;100.00
66021;BME280;52789;59.980;30.346;2023-12-14T01:41:15;101243.50;;;-2.75;100.00
66021;BME280;52789;59.980;30.346;2023-12-14T01:43:40;101254.84;;;-2.76;100.00
66021;BME280;52789;59.980;30.346;2023-12-14T01:46:06;101249.34;;;-2.70;100.00
66021;BME280;52789;59.980;30.346;2023-12-14T01:48:31;101257.66;;;-2.62;100.00
66021;BME280;52789;59.980;30.346;2023-12-14T01:50:57;101259.84;;;-2.72;100.00
66021;BME280;52789;59.980;30.346;2023-12-14T01:53:23;101249.88;;;-2.83;100.00
66021;BME280;52789;59.980;30.346;2023-12-14T01:55:48;101252.28;;;-2.78;100.00
66021;BME280;52789;59.980;30.346;2023-12-14T01:58:14;101262.25;;;-2.67;100.00
66021;BME280;52789;59.980;30.346;2023-12-14T02:00:44;101249.75;;;-2.59;100.00
66021;BME280;52789;59.980;30.346;2023-12-14T02:03:11;101253.91;;;-2.55;100.00
66021;BME280;52789;59.980;30.346;2023-12-14T02:05:37;101247.78;;;-2.54;100.00
66021;BME280;52789;59.980;30.346;2023-12-14T02:08:03;101237.50;;;-2.57;100.00
66021;BME280;52789;59.980;30.346;2023-12-14T02:10:32;101261.59;;;-2.52;100.00
66021;BME280;52789;59.980;30.346;2023-12-14T02:12:58;101226.88;;;-2.73;100.00
66021;BME280;52789;59.980;30.346;2023-12-14T02:15:24;101233.63;;;-2.69;100.00
66021;BME280;52789;59.980;30.346;2023-12-14T02:17:49;101263.28;;;-2.71;100.00
66021;BME280;52789;59.980;30.346;2023-12-14T02:20:15;101254.97;;;-2.79;100.00
66021;BME280;52789;59.980;30.346;2023-12-14T02:22:54;101247.22;;;-2.81;100.00
66021;BME280;52789;59.980;30.346;2023-12-14T02:25:20;101252.66;;;-2.67;100.00
66021;BME280;52789;59.980;30.346;2023-12-14T02:27:46;101250.25;;;-2.71;100.00
66021;BME280;52789;59.980;30.346;2023-12-14T02:30:12;101248.00;;;-2.79;100.00
66021;BME280;52789;59.980;30.346;2023-12-14T02:32:38;101245.44;;;-2.81;100.00
66021;BME280;52789;59.980;30.346;2023-12-14T02:35:05;101244.97;;;-2.90;100.00
66021;BME280;52789;59.980;30.346;2023-12-14T02:37:31;101221.28;;;-3.04;100.00
66021;BME280;52789;59.980;30.346;2023-12-14T02:39:58;101242.56;;;-2.95;100.00
66021;BME280;52789;59.980;30.346;2023-12-14T02:42:23;101249.34;;;-2.91;100.00
66021;BME280;52789;59.980;30.346;2023-12-14T02:44:49;101235.78;;;-2.99;100.00
66021;BME280;52789;59.980;30.346;2023-12-14T02:47:15;101241.84;;;-2.98;100.00
66021;BME280;52789;59.980;30.346;2023-12-14T02:49:43;101253.84;;;-2.94;100.00
66021;BME280;52789;59.980;30.346;2023-12-14T02:52:09;101230.25;;;-3.12;100.00
66021;BME280;52789;59.980;30.346;2023-12-14T02:54:37;101256.50;;;-2.96;100.00
66021;BME280;52789;59.980;30.346;2023-12-14T02:57:03;101238.03;;;-3.10;100.00
66021;BME280;52789;59.980;30.346;2023-12-14T02:59:29;101258.59;;;-3.04;100.00
66021;BME280;52789;59.980;30.346;2023-12-14T03:01:54;101193.31;;;-3.41;100.00
66021;BME280;52789;59.980;30.346;2023-12-14T03:04:20;101245.28;;;-3.18;100.00
66021;BME280;52789;59.980;30.346;2023-12-14T03:06:46;101232.50;;;-3.24;100.00
66021;BME280;52789;59.980;30.346;2023-12-14T03:09:15;101262.38;;;-3.11;100.00
66021;BME280;52789;59.980;30.346;2023-12-14T03:11:40;101252.88;;;-3.12;100.00
66021;BME280;52789;59.980;30.346;2023-12-14T03:14:06;101276.06;;;-3.06;100.00
66021;BME280;52789;59.980;30.346;2023-12-14T03:16:31;101267.59;;;-3.11;100.00
66021;BME280;52789;59.980;30.346;2023-12-14T03:18:57;101271.22;;;-2.95;100.00
66021;BME280;52789;59.980;30.346;2023-12-14T03:21:23;101280.63;;;-2.91;100.00
66021;BME280;52789;59.980;30.346;2023-12-14T03:23:52;101245.91;;;-3.12;100.00
66021;BME280;52789;59.980;30.346;2023-12-14T03:26:17;101187.69;;;-3.53;100.00
66021;BME280;52789;59.980;30.346;2023-12-14T03:28:43;101250.50;;;-3.18;100.00
66021;BME280;52789;59.980;30.346;2023-12-14T03:31:12;101278.59;;;-3.04;100.00
66021;BME280;52789;59.980;30.346;2023-12-14T03:33:38;101274.75;;;-3.16;100.00
66021;BME280;52789;59.980;30.346;2023-12-14T03:36:04;101262.00;;;-3.24;100.00
66021;BME280;52789;59.980;30.346;2023-12-14T03:38:31;101278.28;;;-3.17;100.00
66021;BME280;52789;59.980;30.346;2023-12-14T03:40:57;101282.31;;;-3.10;100.00
66021;BME280;52789;59.980;30.346;2023-12-14T03:43:23;101278.00;;;-3.11;100.00
66021;BME280;52789;59.980;30.346;2023-12-14T03:45:48;101279.00;;;-3.14;100.00
66021;BME280;52789;59.980;30.346;2023-12-14T03:48:14;101289.28;;;-3.10;100.00
66021;BME280;52789;59.980;30.346;2023-12-14T03:50:40;101271.34;;;-3.18;100.00
66021;BME280;52789;59.980;30.346;2023-12-14T03:53:06;101284.91;;;-3.10;100.00
66021;BME280;52789;59.980;30.346;2023-12-14T03:55:33;101257.66;;;-3.23;100.00
66021;BME280;52789;59.980;30.346;2023-12-14T03:57:58;101270.19;;;-3.11;100.00
66021;BME280;52789;59.980;30.346;2023-12-14T04:00:24;101266.38;;;-3.24;100.00
66021;BME280;52789;59.980;30.346;2023-12-14T04:02:50;101288.00;;;-3.22;100.00
66021;BME280;52789;59.980;30.346;2023-12-14T04:05:15;101292.56;;;-3.27;100.00
66021;BME280;52789;59.980;30.346;2023-12-14T04:07:41;101290.72;;;-3.25;100.00
66021;BME280;52789;59.980;30.346;2023-12-14T04:10:08;101295.69;;;-3.19;100.00
66021;BME280;52789;59.980;30.346;2023-12-14T04:12:35;101276.34;;;-3.34;100.00
66021;BME280;52789;59.980;30.346;2023-12-14T04:15:02;101260.47;;;-3.50;100.00
66021;BME280;52789;59.980;30.346;2023-12-14T04:17:31;101232.84;;;-3.54;100.00
66021;BME280;52789;59.980;30.346;2023-12-14T04:19:57;101295.09;;;-3.04;100.00
66021;BME280;52789;59.980;30.346;2023-12-14T04:22:23;101239.09;;;-3.36;100.00
66021;BME280;52789;59.980;30.346;2023-12-14T04:24:50;101301.59;;;-3.14;100.00
66021;BME280;52789;59.980;30.346;2023-12-14T04:27:15;101268.34;;;-3.51;100.00
66021;BME280;52789;59.980;30.346;2023-12-14T04:29:41;101285.78;;;-3.31;100.00
66021;BME280;52789;59.980;30.346;2023-12-14T04:32:07;101304.13;;;-3.13;100.00
66021;BME280;52789;59.980;30.346;2023-12-14T04:34:32;101302.38;;;-2.92;100.00
66021;BME280;52789;59.980;30.346;2023-12-14T04:36:58;101305.59;;;-2.85;100.00
66021;BME280;52789;59.980;30.346;2023-12-14T04:39:24;101268.19;;;-3.04;100.00
66021;BME280;52789;59.980;30.346;2023-12-14T04:41:50;101282.00;;;-3.02;100.00
66021;BME280;52789;59.980;30.346;2023-12-14T04:44:18;101304.88;;;-2.89;100.00
66021;BME280;52789;59.980;30.346;2023-12-14T04:46:44;101293.50;;;-3.08;100.00
66021;BME280;52789;59.980;30.346;2023-12-14T04:49:09;101283.34;;;-3.14;100.00
66021;BME280;52789;59.980;30.346;2023-12-14T04:51:35;101290.59;;;-3.22;100.00
66021;BME280;52789;59.980;30.346;2023-12-14T04:54:00;101268.97;;;-3.45;100.00
66021;BME280;52789;59.980;30.346;2023-12-14T04:56:26;101290.13;;;-3.32;100.00
66021;BME280;52789;59.980;30.346;2023-12-14T04:58:52;101299.84;;;-3.35;100.00
66021;BME280;52789;59.980;30.346;2023-12-14T05:01:17;101289.88;;;-3.48;100.00
66021;BME280;52789;59.980;30.346;2023-12-14T05:03:43;101273.78;;;-3.57;100.00
66021;BME280;52789;59.980;30.346;2023-12-14T05:06:09;101310.38;;;-3.38;100.00
66021;BME280;52789;59.980;30.346;2023-12-14T05:08:35;101285.66;;;-3.50;100.00
66021;BME280;52789;59.980;30.346;2023-12-14T05:11:01;101297.66;;;-3.46;100.00
66021;BME280;52789;59.980;30.346;2023-12-14T05:13:26;101313.75;;;-3.36;100.00
66021;BME280;52789;59.980;30.346;2023-12-14T05:15:52;101295.91;;;-3.46;100.00
66021;BME280;52789;59.980;30.346;2023-12-14T05:18:18;101316.50;;;-3.39;100.00
66021;BME280;52789;59.980;30.346;2023-12-14T05:20:43;101288.81;;;-3.64;100.00
66021;BME280;52789;59.980;30.346;2023-12-14T05:23:11;101315.13;;;-3.50;100.00
66021;BME280;52789;59.980;30.346;2023-12-14T05:25:37;101298.97;;;-3.58;100.00
66021;BME280;52789;59.980;30.346;2023-12-14T05:28:03;101304.13;;;-3.56;100.00
66021;BME280;52789;59.980;30.346;2023-12-14T05:30:29;101295.72;;;-3.63;100.00
66021;BME280;52789;59.980;30.346;2023-12-14T05:32:55;101296.84;;;-3.70;100.00
66021;BME280;52789;59.980;30.346;2023-12-14T05:35:20;101314.47;;;-3.55;100.00
66021;BME280;52789;59.980;30.346;2023-12-14T05:37:47;101333.38;;;-3.50;100.00
66021;BME280;52789;59.980;30.346;2023-12-14T05:40:12;101314.59;;;-3.58;100.00
66021;BME280;52789;59.980;30.346;2023-12-14T05:42:38;101333.47;;;-3.53;100.00
66021;BME280;52789;59.980;30.346;2023-12-14T05:45:07;101325.28;;;-3.42;100.00
66021;BME280;52789;59.980;30.346;2023-12-14T05:47:33;101336.19;;;-3.32;100.00
66021;BME280;52789;59.980;30.346;2023-12-14T05:50:00;101316.97;;;-3.52;100.00
66021;BME280;52789;59.980;30.346;2023-12-14T05:52:26;101341.34;;;-3.54;100.00
66021;BME280;52789;59.980;30.346;2023-12-14T05:54:52;101332.09;;;-3.61;100.00
66021;BME280;52789;59.980;30.346;2023-12-14T05:57:17;101329.72;;;-3.67;100.00
66021;BME280;52789;59.980;30.346;2023-12-14T05:59:43;101331.47;;;-3.68;100.00
66021;BME280;52789;59.980;30.346;2023-12-14T06:02:08;101355.88;;;-3.49;100.00
66021;BME280;52789;59.980;30.346;2023-12-14T06:04:34;101348.50;;;-3.59;100.00
66021;BME280;52789;59.980;30.346;2023-12-14T06:07:00;101353.16;;;-3.67;100.00
66021;BME280;52789;59.980;30.346;2023-12-14T06:09:28;101356.59;;;-3.67;100.00
66021;BME280;52789;59.980;30.346;2023-12-14T06:12:04;101339.84;;;-3.83;100.00
66021;BME280;52789;59.980;30.346;2023-12-14T06:14:30;101358.53;;;-3.72;100.00
66021;BME280;52789;59.980;30.346;2023-12-14T06:16:56;101364.25;;;-3.62;100.00
66021;BME280;52789;59.980;30.346;2023-12-14T06:19:22;101368.47;;;-3.60;100.00
66021;BME280;52789;59.980;30.346;2023-12-14T06:21:48;101358.53;;;-3.72;100.00
66021;BME280;52789;59.980;30.346;2023-12-14T06:24:14;101367.94;;;-3.68;100.00
66021;BME280;52789;59.980;30.346;2023-12-14T06:26:44;101363.56;;;-3.67;100.00
66021;BME280;52789;59.980;30.346;2023-12-14T06:29:11;101358.66;;;-3.75;100.00
66021;BME280;52789;59.980;30.346;2023-12-14T06:31:38;101363.88;;;-3.75;100.00
66021;BME280;52789;59.980;30.346;2023-12-14T06:34:04;101349.47;;;-3.85;100.00
66021;BME280;52789;59.980;30.346;2023-12-14T06:36:31;101355.59;;;-3.86;100.00
66021;BME280;52789;59.980;30.346;2023-12-14T06:39:00;101365.66;;;-3.77;100.00
66021;BME280;52789;59.980;30.346;2023-12-14T06:41:27;101355.75;;;-3.67;100.00
66021;BME280;52789;59.980;30.346;2023-12-14T06:43:54;101362.72;;;-3.68;100.00
66021;BME280;52789;59.980;30.346;2023-12-14T06:46:20;101371.38;;;-3.67;100.00
66021;BME280;52789;59.980;30.346;2023-12-14T06:48:46;101376.28;;;-3.60;100.00
66021;BME280;52789;59.980;30.346;2023-12-14T06:51:12;101368.38;;;-3.80;100.00
66021;BME280;52789;59.980;30.346;2023-12-14T06:53:42;101388.88;;;-3.71;100.00
66021;BME280;52789;59.980;30.346;2023-12-14T06:56:09;101388.94;;;-3.72;100.00
66021;BME280;52789;59.980;30.346;2023-12-14T06:58:43;101380.69;;;-3.85;100.00
66021;BME280;52789;59.980;30.346;2023-12-14T07:01:14;101392.56;;;-3.78;100.00
66021;BME280;52789;59.980;30.346;2023-12-14T07:03:41;101400.63;;;-3.84;100.00
66021;BME280;52789;59.980;30.346;2023-12-14T07:06:07;101386.38;;;-3.97;100.00
66021;BME280;52789;59.980;30.346;2023-12-14T07:08:36;101362.34;;;-4.06;100.00
66021;BME280;52789;59.980;30.346;2023-12-14T07:11:04;101382.34;;;-3.83;100.00
66021;BME280;52789;59.980;30.346;2023-12-14T07:13:29;101410.25;;;-3.63;100.00
66021;BME280;52789;59.980;30.346;2023-12-14T07:15:56;101343.09;;;-4.00;100.00
66021;BME280;52789;59.980;30.346;2023-12-14T07:18:22;101411.84;;;-3.59;100.00
66021;BME280;52789;59.980;30.346;2023-12-14T07:20:47;101397.63;;;-3.73;100.00
66021;BME280;52789;59.980;30.346;2023-12-14T07:23:13;101342.56;;;-4.10;100.00
66021;BME280;52789;59.980;30.346;2023-12-14T07:25:39;101405.50;;;-3.75;100.00
66021;BME280;52789;59.980;30.346;2023-12-14T07:28:04;101400.44;;;-3.80;100.00
66021;BME280;52789;59.980;30.346;2023-12-14T07:30:30;101400.63;;;-3.84;100.00
66021;BME280;52789;59.980;30.346;2023-12-14T07:32:56;101423.00;;;-3.80;100.00
66021;BME280;52789;59.980;30.346;2023-12-14T07:35:22;101421.13;;;-3.75;100.00
66021;BME280;52789;59.980;30.346;2023-12-14T07:37:54;101403.91;;;-3.79;100.00
66021;BME280;52789;59.980;30.346;2023-12-14T07:40:20;101341.53;;;-4.29;100.00
66021;BME280;52789;59.980;30.346;2023-12-14T07:42:46;101428.88;;;-3.73;100.00
66021;BME280;52789;59.980;30.346;2023-12-14T07:45:12;101359.00;;;-4.09;100.00
66021;BME280;52789;59.980;30.346;2023-12-14T07:47:37;101420.91;;;-3.69;100.00
66021;BME280;52789;59.980;30.346;2023-12-14T07:50:03;101393.66;;;-3.84;100.00
66021;BME280;52789;59.980;30.346;2023-12-14T07:52:31;101396.03;;;-4.01;100.00
66021;BME280;52789;59.980;30.346;2023-12-14T07:54:56;101405.66;;;-4.03;100.00
66021;BME280;52789;59.980;30.346;2023-12-14T07:57:22;101414.94;;;-3.96;100.00
66021;BME280;52789;59.980;30.346;2023-12-14T07:59:49;101430.16;;;-3.85;100.00
66021;BME280;52789;59.980;30.346;2023-12-14T08:02:14;101397.63;;;-3.97;100.00
66021;BME280;52789;59.980;30.346;2023-12-14T08:07:50;101427.88;;;-3.94;100.00
66021;BME280;52789;59.980;30.346;2023-12-14T08:10:18;101408.13;;;-4.00;100.00
66021;BME280;52789;59.980;30.346;2023-12-14T08:16:25;101439.81;;;-3.89;100.00
66021;BME280;52789;59.980;30.346;2023-12-14T08:18:51;101441.63;;;-3.91;100.00
66021;BME280;52789;59.980;30.346;2023-12-14T08:21:23;101421.19;;;-4.01;100.00
66021;BME280;52789;59.980;30.346;2023-12-14T08:23:49;101452.66;;;-3.84;100.00
66021;BME280;52789;59.980;30.346;2023-12-14T08:26:15;101412.69;;;-4.07;100.00
66021;BME280;52789;59.980;30.346;2023-12-14T08:28:40;101432.28;;;-3.96;100.00
66021;BME280;52789;59.980;30.346;2023-12-14T08:31:06;101454.38;;;-3.83;100.00
66021;BME280;52789;59.980;30.346;2023-12-14T08:33:33;101445.53;;;-3.79;100.00
66021;BME280;52789;59.980;30.346;2023-12-14T08:35:59;101441.94;;;-3.75;100.00
66021;BME280;52789;59.980;30.346;2023-12-14T08:38:28;101462.78;;;-3.75;100.00
66021;BME280;52789;59.980;30.346;2023-12-14T08:40:53;101459.34;;;-3.77;100.00
66021;BME280;52789;59.980;30.346;2023-12-14T08:43:19;101447.56;;;-3.87;100.00
66021;BME280;52789;59.980;30.346;2023-12-14T08:45:44;101442.97;;;-4.04;100.00
66021;BME280;52789;59.980;30.346;2023-12-14T08:48:10;101429.19;;;-4.08;100.00
66021;BME280;52789;59.980;30.346;2023-12-14T08:50:35;101454.38;;;-3.83;100.00
66021;BME280;52789;59.980;30.346;2023-12-14T08:53:01;101439.34;;;-4.00;100.00
66021;BME280;52789;59.980;30.346;2023-12-14T08:55:27;101466.34;;;-3.79;100.00
66021;BME280;52789;59.980;30.346;2023-12-14T08:57:53;101433.38;;;-4.02;100.00
66021;BME280;52789;59.980;30.346;2023-12-14T09:00:19;101452.78;;;-3.87;100.00
66021;BME280;52789;59.980;30.346;2023-12-14T09:02:45;101462.78;;;-3.75;100.00
66021;BME280;52789;59.980;30.346;2023-12-14T09:05:12;101466.72;;;-3.65;100.00
66021;BME280;52789;59.980;30.346;2023-12-14T09:07:38;101471.81;;;-3.62;100.00
66021;BME280;52789;59.980;30.346;2023-12-14T09:10:06;101434.81;;;-3.70;100.00
66021;BME280;52789;59.980;30.346;2023-12-14T09:12:33;101390.19;;;-3.84;100.00
66021;BME280;52789;59.980;30.346;2023-12-14T09:15:14;101363.38;;;-4.10;100.00
66021;BME280;52789;59.980;30.346;2023-12-14T09:17:44;101427.50;;;-3.84;100.00
66021;BME280;52789;59.980;30.346;2023-12-14T09:20:10;101250.00;;;-4.87;100.00
66021;BME280;52789;59.980;30.346;2023-12-14T09:22:37;101350.53;;;-4.39;100.00
66021;BME280;52789;59.980;30.346;2023-12-14T09:25:05;101473.63;;;-3.64;100.00
66021;BME280;52789;59.980;30.346;2023-12-14T09:27:32;101273.03;;;-4.78;100.00
66021;BME280;52789;59.980;30.346;2023-12-14T09:29:57;101314.13;;;-4.62;100.00
66021;BME280;52789;59.980;30.346;2023-12-14T09:32:23;101369.44;;;-4.34;100.00
66021;BME280;52789;59.980;30.346;2023-12-14T09:34:49;101438.84;;;-3.86;100.00
66021;BME280;52789;59.980;30.346;2023-12-14T09:37:17;101396.28;;;-4.09;100.00
66021;BME280;52789;59.980;30.346;2023-12-14T09:39:43;101453.59;;;-3.62;100.00
66021;BME280;52789;59.980;30.346;2023-12-14T09:42:08;101473.00;;;-3.47;100.00
66021;BME280;52789;59.980;30.346;2023-12-14T09:44:36;101471.22;;;-3.45;100.00
66021;BME280;52789;59.980;30.346;2023-12-14T09:47:02;101455.75;;;-3.50;100.00
66021;BME280;52789;59.980;30.346;2023-12-14T09:49:32;101475.47;;;-3.42;100.00
66021;BME280;52789;59.980;30.346;2023-12-14T09:51:58;101435.22;;;-3.57;100.00
66021;BME280;52789;59.980;30.346;2023-12-14T09:54:27;101453.38;;;-3.32;100.00
66021;BME280;52789;59.980;30.346;2023-12-14T09:56:53;101472.75;;;-3.16;100.00
66021;BME280;52789;59.980;30.346;2023-12-14T09:59:19;101468.59;;;-3.22;100.00
66021;BME280;52789;59.980;30.346;2023-12-14T10:01:45;101463.84;;;-3.34;100.00
66021;BME280;52789;59.980;30.346;2023-12-14T10:04:16;101400.91;;;-3.68;100.00
66021;BME280;52789;59.980;30.346;2023-12-14T10:06:44;101485.66;;;-3.13;100.00
66021;BME280;52789;59.980;30.346;2023-12-14T10:09:11;101478.16;;;-2.99;100.00
66021;BME280;52789;59.980;30.346;2023-12-14T10:11:41;101471.56;;;-2.86;100.00
66021;BME280;52789;59.980;30.346;2023-12-14T10:14:21;101462.09;;;-2.66;100.00
66021;BME280;52789;59.980;30.346;2023-12-14T10:16:48;101488.38;;;-2.49;100.00
66021;BME280;52789;59.980;30.346;2023-12-14T10:19:16;101443.69;;;-2.84;100.00
66021;BME280;52789;59.980;30.346;2023-12-14T10:21:42;101463.56;;;-2.81;100.00
66021;BME280;52789;59.980;30.346;2023-12-14T10:24:08;101464.41;;;-2.81;100.00
66021;BME280;52789;59.980;30.346;2023-12-14T10:26:34;101461.63;;;-2.76;100.00
66021;BME280;52789;59.980;30.346;2023-12-14T10:28:59;101473.50;;;-2.69;100.00
66021;BME280;52789;59.980;30.346;2023-12-14T10:31:25;101493.97;;;-2.58;100.00
66021;BME280;52789;59.980;30.346;2023-12-14T10:33:51;101445.63;;;-2.89;100.00
66021;BME280;52789;59.980;30.346;2023-12-14T10:36:22;101443.97;;;-3.13;100.00
66021;BME280;52789;59.980;30.346;2023-12-14T10:38:52;101476.63;;;-3.04;100.00
66021;BME280;52789;59.980;30.346;2023-12-14T10:41:20;101465.59;;;-3.11;100.00
66021;BME280;52789;59.980;30.346;2023-12-14T10:43:47;101466.63;;;-3.15;100.00
66021;BME280;52789;59.980;30.346;2023-12-14T10:46:13;101448.13;;;-3.31;100.00
66021;BME280;52789;59.980;30.346;2023-12-14T10:48:39;101463.97;;;-3.37;100.00
66021;BME280;52789;59.980;30.346;2023-12-14T10:51:08;101457.44;;;-3.49;100.00
66021;BME280;52789;59.980;30.346;2023-12-14T10:53:35;101429.88;;;-3.78;100.00
66021;BME280;52789;59.980;30.346;2023-12-14T10:56:04;101443.41;;;-3.68;100.00
66021;BME280;52789;59.980;30.346;2023-12-14T10:58:52;101457.84;;;-3.59;100.00
66021;BME280;52789;59.980;30.346;2023-12-14T11:01:20;101463.09;;;-3.61;100.00
66021;BME280;52789;59.980;30.346;2023-12-14T11:03:47;101405.94;;;-3.87;100.00
66021;BME280;52789;59.980;30.346;2023-12-14T11:06:36;101482.25;;;-3.38;100.00
66021;BME280;52789;59.980;30.346;2023-12-14T11:09:08;101487.69;;;-3.45;100.00
66021;BME280;52789;59.980;30.346;2023-12-14T11:14:13;101478.88;;;-3.40;100.00
66021;BME280;52789;59.980;30.346;2023-12-14T11:16:44;101481.59;;;-3.44;100.00
66021;BME280;52789;59.980;30.346;2023-12-14T11:24:19;101464.91;;;-3.63;100.00
66021;BME280;52789;59.980;30.346;2023-12-14T11:26:44;101481.22;;;-3.58;100.00
66021;BME280;52789;59.980;30.346;2023-12-14T11:29:11;101478.84;;;-3.64;100.00
66021;BME280;52789;59.980;30.346;2023-12-14T11:31:37;101488.34;;;-3.63;100.00
66021;BME280;52789;59.980;30.346;2023-12-14T11:34:05;101489.25;;;-3.64;100.00
66021;BME280;52789;59.980;30.346;2023-12-14T11:36:33;101305.13;;;-4.79;100.00
66021;BME280;52789;59.980;30.346;2023-12-14T11:38:59;101381.75;;;-4.39;100.00
66021;BME280;52789;59.980;30.346;2023-12-14T11:41:25;101466.91;;;-3.94;100.00
66021;BME280;52789;59.980;30.346;2023-12-14T11:43:51;101490.78;;;-3.83;100.00
66021;BME280;52789;59.980;30.346;2023-12-14T11:46:18;101422.84;;;-4.24;100.00
66021;BME280;52789;59.980;30.346;2023-12-14T11:48:45;101495.88;;;-3.80;100.00
66021;BME280;52789;59.980;30.346;2023-12-14T11:51:17;101467.75;;;-3.94;100.00
66021;BME280;52789;59.980;30.346;2023-12-14T11:53:50;101497.47;;;-3.76;100.00
66021;BME280;52789;59.980;30.346;2023-12-14T11:56:19;101484.97;;;-3.90;100.00
66021;BME280;52789;59.980;30.346;2023-12-14T11:58:45;101505.25;;;-3.75;100.00
66021;BME280;52789;59.980;30.346;2023-12-14T12:01:29;101442.06;;;-4.28;100.00
66021;BME280;52789;59.980;30.346;2023-12-14T12:03:57;101493.16;;;-4.00;100.00
66021;BME280;52789;59.980;30.346;2023-12-14T12:06:33;101527.44;;;-3.89;100.00
66021;BME280;52789;59.980;30.346;2023-12-14T12:08:59;101512.16;;;-3.98;100.00
66021;BME280;52789;59.980;30.346;2023-12-14T12:11:24;101471.41;;;-4.24;100.00
66021;BME280;52789;59.980;30.346;2023-12-14T12:13:54;101500.84;;;-3.97;100.00
66021;BME280;52789;59.980;30.346;2023-12-14T12:16:22;101505.72;;;-3.88;100.00
66021;BME280;52789;59.980;30.346;2023-12-14T12:18:48;101495.31;;;-3.88;100.00
66021;BME280;52789;59.980;30.346;2023-12-14T12:21:16;101513.81;;;-3.71;100.00
66021;BME280;52789;59.980;30.346;2023-12-14T12:23:41;101514.50;;;-3.66;100.00
66021;BME280;52789;59.980;30.346;2023-12-14T12:26:08;101506.13;;;-3.74;100.00
66021;BME280;52789;59.980;30.346;2023-12-14T12:28:33;101528.63;;;-3.73;100.00
66021;BME280;52789;59.980;30.346;2023-12-14T12:30:59;101505.66;;;-3.87;100.00
66021;BME280;52789;59.980;30.346;2023-12-14T12:33:25;101359.06;;;-4.85;100.00
66021;BME280;52789;59.980;30.346;2023-12-14T12:35:52;101533.91;;;-3.76;100.00
66021;BME280;52789;59.980;30.346;2023-12-14T12:38:17;101527.22;;;-3.83;100.00
66021;BME280;52789;59.980;30.346;2023-12-14T12:40:44;101508.69;;;-3.99;100.00
66021;BME280;52789;59.980;30.346;2023-12-14T12:43:10;101528.63;;;-3.98;100.00